createdAt,value
2022-11-01T00:01:14.339Z,14.75
2022-11-01T00:03:44.677Z,14.85
2022-11-01T00:06:18.116Z,17.00
2022-11-01T00:08:49.823Z,14.27
2022-11-01T00:11:23.217Z,14.43
2022-11-01T00:13:52.730Z,14.13
2022-11-01T00:16:23.119Z,16.92
2022-11-01T00:18:52.115Z,16.63
2022-11-01T00:21:24.464Z,19.90
2022-11-01T00:23:53.738Z,20.00
2022-11-01T00:26:24.862Z,18.88
2022-11-01T00:28:54.918Z,15.45
2022-11-01T00:31:24.492Z,16.95
2022-11-01T00:33:53.234Z,17.00
2022-11-01T00:36:23.285Z,19.67
2022-11-01T00:38:52.660Z,19.40
2022-11-01T00:41:22.306Z,16.30
2022-11-01T00:43:51.172Z,15.25
2022-11-01T00:46:20.298Z,14.30
2022-11-01T00:48:49.201Z,16.75
2022-11-01T00:51:24.422Z,15.52
2022-11-01T00:53:53.213Z,12.85
2022-11-01T00:56:22.798Z,16.13
2022-11-01T00:58:53.281Z,17.08
2022-11-01T01:01:23.491Z,15.77
2022-11-01T01:03:52.573Z,15.07
2022-11-01T01:06:21.690Z,12.63
2022-11-01T01:08:54.556Z,16.55
2022-11-01T01:11:24.874Z,13.32
2022-11-01T01:13:54.198Z,11.73
2022-11-01T01:16:23.337Z,14.93
2022-11-01T01:18:52.844Z,11.90
2022-11-01T01:21:21.659Z,14.05
2022-11-01T01:23:52.174Z,12.45
2022-11-01T01:26:21.244Z,13.30
2022-11-01T01:28:55.133Z,14.10
2022-11-01T01:31:26.541Z,15.70
2022-11-01T01:36:26.685Z,17.08
2022-11-01T01:38:57.131Z,12.75
2022-11-01T01:41:45.346Z,12.98
2022-11-01T01:45:02.815Z,12.77
2022-11-01T01:47:35.632Z,13.68
2022-11-01T01:50:09.522Z,12.10
2022-11-01T01:52:43.618Z,10.73
2022-11-01T01:55:20.372Z,11.93
2022-11-01T01:57:55.902Z,12.05
2022-11-01T02:00:26.726Z,11.90
2022-11-01T02:02:57.171Z,12.55
2022-11-01T02:05:32.176Z,11.40
2022-11-01T02:08:02.209Z,11.05
2022-11-01T02:10:33.455Z,14.02
2022-11-01T02:13:02.297Z,13.73
2022-11-01T02:15:38.858Z,11.77
2022-11-01T02:18:20.395Z,12.02
2022-11-01T02:21:37.290Z,9.80
2022-11-01T02:24:31.272Z,13.77
2022-11-01T02:27:15.343Z,12.57
2022-11-01T02:30:17.806Z,11.90
2022-11-01T02:35:30.042Z,12.55
2022-11-01T02:38:08.251Z,10.65
2022-11-01T02:40:45.587Z,10.98
2022-11-01T02:43:20.018Z,12.20
2022-11-01T02:45:51.504Z,11.23
2022-11-01T02:48:25.192Z,11.90
2022-11-01T02:50:57.933Z,15.00
2022-11-01T02:53:26.738Z,12.07
2022-11-01T02:55:57.746Z,12.52
2022-11-01T02:58:29.718Z,11.65
2022-11-01T03:01:01.107Z,14.77
2022-11-01T03:03:33.855Z,11.63
2022-11-01T03:06:13.751Z,13.02
2022-11-01T03:08:44.598Z,11.30
2022-11-01T03:11:17.020Z,13.82
2022-11-01T03:14:02.117Z,13.02
2022-11-01T03:16:36.136Z,10.38
2022-11-01T03:19:27.728Z,11.07
2022-11-01T03:22:05.239Z,10.50
2022-11-01T03:24:38.959Z,12.75
2022-11-01T03:27:14.380Z,10.77
2022-11-01T03:29:49.504Z,10.95
2022-11-01T03:32:20.878Z,10.15
2022-11-01T03:34:51.222Z,9.93
2022-11-01T03:37:22.207Z,10.73
2022-11-01T03:39:54.068Z,9.88
2022-11-01T03:42:25.348Z,8.45
2022-11-01T03:45:00.368Z,10.25
2022-11-01T03:47:31.664Z,8.93
2022-11-01T03:50:16.667Z,10.27
2022-11-01T03:52:46.134Z,11.40
2022-11-01T03:55:19.726Z,12.27
2022-11-01T03:57:49.869Z,16.77
2022-11-01T04:00:21.884Z,8.75
2022-11-01T04:02:51.083Z,11.80
2022-11-01T04:05:24.096Z,10.43
2022-11-01T04:07:52.968Z,9.93
2022-11-01T04:10:23.167Z,13.95
2022-11-01T04:12:52.329Z,9.90
2022-11-01T04:15:39.257Z,10.07
2022-11-01T04:18:31.332Z,10.13
2022-11-01T04:23:31.603Z,12.27
2022-11-01T04:26:04.020Z,9.40
2022-11-01T04:28:35.592Z,10.15
2022-11-01T04:31:04.156Z,9.23
2022-11-01T04:33:35.656Z,10.77
2022-11-01T04:36:10.527Z,9.10
2022-11-01T04:38:40.188Z,10.55
2022-11-01T04:41:13.584Z,13.73
2022-11-01T04:43:42.565Z,9.68
2022-11-01T04:46:13.146Z,10.48
2022-11-01T04:48:41.948Z,9.13
2022-11-01T04:51:12.903Z,9.40
2022-11-01T04:53:41.676Z,10.07
2022-11-01T04:56:11.363Z,8.63
2022-11-01T04:58:44.820Z,9.20
2022-11-01T05:01:17.202Z,9.60
2022-11-01T05:03:50.567Z,8.60
2022-11-01T05:06:21.059Z,8.88
2022-11-01T05:08:49.858Z,9.07
2022-11-01T05:11:18.598Z,10.20
2022-11-01T05:13:47.599Z,9.15
2022-11-01T05:16:21.009Z,9.30
2022-11-01T05:18:50.754Z,10.85
2022-11-01T05:21:21.056Z,12.35
2022-11-01T05:23:50.178Z,15.73
2022-11-01T05:26:18.985Z,9.57
2022-11-01T05:28:48.143Z,10.80
2022-11-01T05:31:20.465Z,8.48
2022-11-01T05:33:55.397Z,12.10
2022-11-01T05:36:26.001Z,10.68
2022-11-01T05:38:59.815Z,12.18
2022-11-01T05:41:28.503Z,10.07
2022-11-01T05:43:57.185Z,11.00
2022-11-01T05:46:26.207Z,10.18
2022-11-01T05:48:56.541Z,9.55
2022-11-01T05:51:27.134Z,11.70
2022-11-01T05:53:55.830Z,10.73
2022-11-01T05:56:26.925Z,9.68
2022-11-01T05:58:55.652Z,12.35
2022-11-01T06:01:25.534Z,8.90
2022-11-01T06:03:54.075Z,10.55
2022-11-01T06:06:25.809Z,12.57
2022-11-01T06:08:56.821Z,13.55
2022-11-01T06:11:27.898Z,12.50
2022-11-01T06:14:01.782Z,11.73
2022-11-01T06:16:30.699Z,13.80
2022-11-01T06:18:59.587Z,12.20
2022-11-01T06:21:30.129Z,15.68
2022-11-01T06:24:00.537Z,11.13
2022-11-01T06:26:29.180Z,13.75
2022-11-01T06:29:00.946Z,11.63
2022-11-01T06:31:30.715Z,12.43
2022-11-01T06:34:02.465Z,11.85
2022-11-01T06:36:31.203Z,12.15
2022-11-01T06:39:01.401Z,11.45
2022-11-01T06:41:37.530Z,12.20
2022-11-01T06:44:08.563Z,11.25
2022-11-01T06:46:39.842Z,10.98
2022-11-01T06:49:17.968Z,12.88
2022-11-01T06:51:51.167Z,10.98
2022-11-01T06:54:24.143Z,13.82
2022-11-01T06:56:55.545Z,12.48
2022-11-01T06:59:25.352Z,12.13
2022-11-01T07:01:54.048Z,11.95
2022-11-01T07:04:27.727Z,13.68
2022-11-01T07:06:56.769Z,13.88
2022-11-01T07:09:26.862Z,13.70
2022-11-01T07:12:00.295Z,11.95
2022-11-01T07:14:31.840Z,13.07
2022-11-01T07:17:01.002Z,11.05
2022-11-01T07:19:35.778Z,12.38
2022-11-01T07:24:34.866Z,10.52
2022-11-01T07:27:03.795Z,11.55
2022-11-01T07:29:34.046Z,11.80
2022-11-01T07:32:02.924Z,11.85
2022-11-01T07:34:34.708Z,10.07
2022-11-01T07:37:05.841Z,11.82
2022-11-01T07:39:35.971Z,11.07
2022-11-01T07:42:08.134Z,12.70
2022-11-01T07:44:36.733Z,11.57
2022-11-01T07:47:05.482Z,12.48
2022-11-01T07:49:34.418Z,10.55
2022-11-01T07:52:10.652Z,11.77
2022-11-01T07:54:41.004Z,9.50
2022-11-01T07:57:12.622Z,10.95
2022-11-01T07:59:41.472Z,10.73
2022-11-01T08:02:10.797Z,10.95
2022-11-01T08:04:39.654Z,12.77
2022-11-01T08:07:08.606Z,12.25
2022-11-01T08:09:37.689Z,15.98
2022-11-01T08:12:11.009Z,11.90
2022-11-01T08:14:42.588Z,10.65
2022-11-01T08:17:11.807Z,12.02
2022-11-01T08:19:44.176Z,12.05
2022-11-01T08:22:12.861Z,12.23
2022-11-01T08:24:41.707Z,12.77
2022-11-01T08:27:12.311Z,12.18
2022-11-01T08:29:44.729Z,12.45
2022-11-01T08:32:16.603Z,12.70
2022-11-01T08:34:46.758Z,13.95
2022-11-01T08:37:17.206Z,11.50
2022-11-01T08:39:48.951Z,12.32
2022-11-01T08:42:29.498Z,12.70
2022-11-01T08:44:58.693Z,14.32
2022-11-01T08:47:27.835Z,10.90
2022-11-01T08:49:57.232Z,13.43
2022-11-01T08:52:25.864Z,13.10
2022-11-01T08:54:55.333Z,13.32
2022-11-01T08:57:25.845Z,14.25
2022-11-01T08:59:55.158Z,10.15
2022-11-01T09:02:24.474Z,18.25
2022-11-01T09:04:53.643Z,16.02
2022-11-01T09:07:22.822Z,17.58
2022-11-01T09:09:53.813Z,15.30
2022-11-01T09:12:24.760Z,11.70
2022-11-01T09:15:02.560Z,11.93
2022-11-01T09:17:39.835Z,12.35
2022-11-01T09:20:09.629Z,16.85
2022-11-01T09:22:39.335Z,13.85
2022-11-01T09:25:09.717Z,13.75
2022-11-01T09:27:40.923Z,17.30
2022-11-01T09:30:12.364Z,15.32
2022-11-01T09:32:43.459Z,13.43
2022-11-01T09:35:12.212Z,12.32
2022-11-01T09:37:40.965Z,12.60
2022-11-01T09:40:12.076Z,11.25
2022-11-01T09:42:45.654Z,16.75
2022-11-01T09:45:22.225Z,11.88
2022-11-01T09:48:04.123Z,11.18
2022-11-01T09:50:42.764Z,12.75
2022-11-01T09:53:35.626Z,18.67
2022-11-01T09:56:15.460Z,12.98
2022-11-01T09:59:01.908Z,14.07
2022-11-01T10:01:42.944Z,12.30
2022-11-01T10:05:03.948Z,10.93
2022-11-01T10:07:47.375Z,12.73
2022-11-01T10:10:33.930Z,12.82
2022-11-01T10:13:38.751Z,12.05
2022-11-01T10:16:19.769Z,14.80
2022-11-01T10:18:57.133Z,13.10
2022-11-01T10:21:33.918Z,16.63
2022-11-01T10:24:08.493Z,12.77
2022-11-01T10:26:44.614Z,16.80
2022-11-01T10:29:25.171Z,14.65
2022-11-01T10:31:59.356Z,14.00
2022-11-01T10:34:41.953Z,15.82
2022-11-01T10:37:22.870Z,15.30
2022-11-01T10:40:08.341Z,18.30
2022-11-01T10:42:42.231Z,15.50
2022-11-01T10:45:28.569Z,18.45
2022-11-01T10:48:08.038Z,17.30
2022-11-01T10:50:43.991Z,18.80
2022-11-01T10:53:22.604Z,15.90
2022-11-01T10:56:01.735Z,17.48
2022-11-01T10:58:42.467Z,15.82
2022-11-01T11:01:17.420Z,19.60
2022-11-01T11:03:58.261Z,21.92
2022-11-01T11:06:33.706Z,17.27
2022-11-01T11:09:06.829Z,17.95
2022-11-01T11:11:43.485Z,18.52
2022-11-01T11:14:19.570Z,18.52
2022-11-01T11:16:55.336Z,16.13
2022-11-01T11:19:36.057Z,18.92
2022-11-01T11:22:09.611Z,17.33
2022-11-01T11:24:47.971Z,16.00
2022-11-01T11:27:25.553Z,21.55
2022-11-01T11:30:10.481Z,19.92
2022-11-01T11:32:49.115Z,21.40
2022-11-01T11:35:25.528Z,19.73
2022-11-01T11:38:01.330Z,21.90
2022-11-01T11:40:45.971Z,22.02
2022-11-01T11:43:26.299Z,23.25
2022-11-01T11:46:09.119Z,24.63
2022-11-01T11:48:50.796Z,17.20
2022-11-01T11:51:20.601Z,19.83
2022-11-01T11:54:32.157Z,19.95
2022-11-01T11:57:18.672Z,21.67
2022-11-01T11:59:57.166Z,22.23
2022-11-01T12:02:34.835Z,22.38
2022-11-01T12:05:27.251Z,22.30
2022-11-01T12:07:59.485Z,25.55
2022-11-01T12:10:39.371Z,23.65
2022-11-01T12:13:27.718Z,22.95
2022-11-01T12:16:17.867Z,21.90
2022-11-01T12:19:00.037Z,21.90
2022-11-01T12:21:39.199Z,23.77
2022-11-01T12:24:32.758Z,22.85
2022-11-01T12:27:18.165Z,29.65
2022-11-01T12:29:53.283Z,24.63
2022-11-01T12:32:29.806Z,30.35
2022-11-01T12:35:05.076Z,34.08
2022-11-01T12:37:47.489Z,26.92
2022-11-01T12:40:24.768Z,25.05
2022-11-01T12:43:03.710Z,21.45
2022-11-01T12:45:38.407Z,22.77
2022-11-01T12:48:14.335Z,20.27
2022-11-01T12:50:49.628Z,22.20
2022-11-01T12:53:25.086Z,17.73
2022-11-01T12:55:58.374Z,20.60
2022-11-01T12:58:33.694Z,19.00
2022-11-01T13:01:29.349Z,21.25
2022-11-01T13:04:17.359Z,24.00
2022-11-01T13:07:04.940Z,21.33
2022-11-01T13:09:48.541Z,21.17
2022-11-01T13:12:29.588Z,24.55
2022-11-01T13:15:08.874Z,24.40
2022-11-01T13:17:47.169Z,23.40
2022-11-01T13:20:49.563Z,22.85
2022-11-01T13:23:30.488Z,26.42
2022-11-01T13:26:06.765Z,21.73
2022-11-01T13:29:04.400Z,25.60
2022-11-01T13:31:52.754Z,22.05
2022-11-01T13:34:36.847Z,28.00
2022-11-01T13:37:15.301Z,26.42
2022-11-01T13:40:06.809Z,26.58
2022-11-01T13:42:43.595Z,27.50
2022-11-01T13:45:42.406Z,29.95
2022-11-01T13:48:26.499Z,29.73
2022-11-01T13:51:19.180Z,33.60
2022-11-01T13:53:56.411Z,31.50
2022-11-01T13:56:32.326Z,31.52
2022-11-01T13:59:02.518Z,30.17
2022-11-01T14:01:36.026Z,30.65
2022-11-01T14:04:26.751Z,29.67
2022-11-01T14:07:15.671Z,28.52
2022-11-01T14:09:48.052Z,29.35
2022-11-01T14:12:36.721Z,28.70
2022-11-01T14:15:21.029Z,30.42
2022-11-01T14:18:06.187Z,26.35
2022-11-01T14:20:56.359Z,35.15
2022-11-01T14:24:00.405Z,29.08
2022-11-01T14:26:45.848Z,28.50
2022-11-01T14:29:15.540Z,29.23
2022-11-01T14:31:48.428Z,30.17
2022-11-01T14:34:30.633Z,27.73
2022-11-01T14:39:38.261Z,28.42
2022-11-01T14:42:11.399Z,26.42
2022-11-01T14:44:50.620Z,26.88
2022-11-01T14:47:36.404Z,25.35
2022-11-01T14:50:21.904Z,22.75
2022-11-01T14:53:01.107Z,20.33
2022-11-01T14:55:36.547Z,21.50
2022-11-01T14:58:20.415Z,24.88
2022-11-01T15:00:55.066Z,23.10
2022-11-01T15:03:25.251Z,24.17
2022-11-01T15:05:55.403Z,23.85
2022-11-01T15:08:31.453Z,24.67
2022-11-01T15:11:05.132Z,26.73
2022-11-01T15:13:39.384Z,26.88
2022-11-01T15:16:17.397Z,23.80
2022-11-01T15:18:53.389Z,23.75
2022-11-01T15:21:28.873Z,21.92
2022-11-01T15:24:03.336Z,22.35
2022-11-01T15:26:34.553Z,26.25
2022-11-01T15:29:06.207Z,23.40
2022-11-01T15:31:35.964Z,28.27
2022-11-01T15:34:06.613Z,23.05
2022-11-01T15:36:38.352Z,28.58
2022-11-01T15:39:19.784Z,27.27
2022-11-01T15:41:49.779Z,30.67
2022-11-01T15:44:23.412Z,30.23
2022-11-01T15:46:56.781Z,29.98
2022-11-01T15:49:29.677Z,34.67
2022-11-01T15:52:01.856Z,31.70
2022-11-01T15:54:43.455Z,28.88
2022-11-01T16:02:23.846Z,28.58
2022-11-01T16:04:53.584Z,28.77
2022-11-01T16:07:23.613Z,27.40
2022-11-01T16:09:59.857Z,30.50
2022-11-01T16:12:32.498Z,29.50
2022-11-01T16:15:04.351Z,28.08
2022-11-01T16:17:35.243Z,30.73
2022-11-01T16:20:06.104Z,27.20
2022-11-01T16:22:38.535Z,28.35
2022-11-01T16:25:22.663Z,29.60
2022-11-01T16:28:05.138Z,25.55
2022-11-01T16:30:40.840Z,22.92
2022-11-01T16:33:25.280Z,28.70
2022-11-01T16:35:57.103Z,29.83
2022-11-01T16:38:48.653Z,27.83
2022-11-01T16:41:21.298Z,26.42
2022-11-01T16:43:54.004Z,28.58
2022-11-01T16:46:24.448Z,30.85
2022-11-01T16:49:03.790Z,30.65
2022-11-01T16:52:07.168Z,31.23
2022-11-01T16:55:37.253Z,26.23
2022-11-01T16:58:10.858Z,25.90
2022-11-01T17:00:41.201Z,25.20
2022-11-01T17:03:16.265Z,26.55
2022-11-01T17:05:56.253Z,22.27
2022-11-01T17:08:29.895Z,23.65
2022-11-01T17:11:03.944Z,24.33
2022-11-01T17:13:38.339Z,28.40
2022-11-01T17:16:14.071Z,27.77
2022-11-01T17:18:45.429Z,30.48
2022-11-01T17:21:14.594Z,27.27
2022-11-01T17:23:43.521Z,26.65
2022-11-01T17:26:14.622Z,32.13
2022-11-01T17:28:51.223Z,27.08
2022-11-01T17:31:21.443Z,26.63
2022-11-01T17:33:50.642Z,25.10
2022-11-01T17:36:20.801Z,26.83
2022-11-01T17:38:50.542Z,30.48
2022-11-01T17:41:20.200Z,25.85
2022-11-01T17:43:50.290Z,30.42
2022-11-01T17:46:23.293Z,27.38
2022-11-01T17:48:52.931Z,30.83
2022-11-01T17:51:23.258Z,29.20
2022-11-01T17:53:55.009Z,29.30
2022-11-01T17:56:25.625Z,26.50
2022-11-01T17:58:55.935Z,27.02
2022-11-01T18:01:25.134Z,29.83
2022-11-01T18:03:54.601Z,26.05
2022-11-01T18:06:23.323Z,28.23
2022-11-01T18:08:54.276Z,31.25
2022-11-01T18:11:38.880Z,30.43
2022-11-01T18:14:17.377Z,30.80
2022-11-01T18:16:49.851Z,31.48
2022-11-01T18:19:48.297Z,27.63
2022-11-01T18:22:29.191Z,30.33
2022-11-01T18:25:02.823Z,24.63
2022-11-01T18:27:35.983Z,22.65
2022-11-01T18:30:17.817Z,22.30
2022-11-01T18:32:52.384Z,25.30
2022-11-01T18:35:31.935Z,26.00
2022-11-01T18:38:26.421Z,23.77
2022-11-01T18:40:59.439Z,23.30
2022-11-01T18:43:32.175Z,23.67
2022-11-01T18:49:00.275Z,24.77
2022-11-01T18:51:31.856Z,23.65
2022-11-01T18:54:17.686Z,24.17
2022-11-01T18:56:51.482Z,26.95
2022-11-01T18:59:29.641Z,24.55
2022-11-01T19:02:14.436Z,27.98
2022-11-01T19:04:46.425Z,27.02
2022-11-01T19:07:19.268Z,28.58
2022-11-01T19:09:54.597Z,32.53
2022-11-01T19:12:28.430Z,29.60
2022-11-01T19:15:01.290Z,27.88
2022-11-01T19:17:37.433Z,28.98
2022-11-01T19:20:21.350Z,26.45
2022-11-01T19:22:50.901Z,28.42
2022-11-01T19:25:24.034Z,30.00
2022-11-01T19:27:56.536Z,30.27
2022-11-01T19:30:27.261Z,31.02
2022-11-01T19:33:00.799Z,32.03
2022-11-01T19:35:29.929Z,33.28
2022-11-01T19:37:58.937Z,33.88
2022-11-01T19:40:30.059Z,35.25
2022-11-01T19:43:04.497Z,35.30
2022-11-01T19:45:34.770Z,30.88
2022-11-01T19:48:13.441Z,28.15
2022-11-01T19:50:44.017Z,31.23
2022-11-01T19:53:27.701Z,27.27
2022-11-01T19:56:00.529Z,33.00
2022-11-01T19:58:40.914Z,32.53
2022-11-01T20:01:42.031Z,29.23
2022-11-01T20:04:35.032Z,33.25
2022-11-01T20:07:14.411Z,32.00
2022-11-01T20:09:44.301Z,28.38
2022-11-01T20:12:18.602Z,31.08
2022-11-01T20:14:50.816Z,34.00
2022-11-01T20:17:20.529Z,33.47
2022-11-01T20:19:51.008Z,36.28
2022-11-01T20:22:19.815Z,31.90
2022-11-01T20:24:48.644Z,40.63
2022-11-01T20:27:18.540Z,36.65
2022-11-01T20:29:47.226Z,43.22
2022-11-01T20:32:16.599Z,49.25
2022-11-01T20:34:47.686Z,42.58
2022-11-01T20:37:33.332Z,39.60
2022-11-01T20:40:03.748Z,42.88
2022-11-01T20:42:33.494Z,48.40
2022-11-01T20:45:02.307Z,40.70
2022-11-01T20:47:31.075Z,39.03
2022-11-01T20:50:03.943Z,39.65
2022-11-01T20:52:39.681Z,38.60
2022-11-01T20:55:11.096Z,41.55
2022-11-01T20:57:40.629Z,40.28
2022-11-01T21:00:13.462Z,41.30
2022-11-01T21:02:43.462Z,40.00
2022-11-01T21:05:22.414Z,45.53
2022-11-01T21:07:56.063Z,45.38
2022-11-01T21:10:31.761Z,45.20
2022-11-01T21:13:03.018Z,43.22
2022-11-01T21:15:37.847Z,47.85
2022-11-01T21:18:35.365Z,36.28
2022-11-01T21:21:32.518Z,41.05
2022-11-01T21:24:22.447Z,40.00
2022-11-01T21:26:55.819Z,35.75
2022-11-01T21:29:28.666Z,34.92
2022-11-01T21:31:58.482Z,31.58
2022-11-01T21:34:30.328Z,37.63
2022-11-01T21:39:33.785Z,34.35
2022-11-01T21:42:06.196Z,35.35
2022-11-01T21:44:40.335Z,40.70
2022-11-01T21:47:19.191Z,35.50
2022-11-01T21:49:48.726Z,36.00
2022-11-01T21:52:19.412Z,40.92
2022-11-01T21:54:49.996Z,39.47
2022-11-01T21:57:19.562Z,40.60
2022-11-01T21:59:49.711Z,32.47
2022-11-01T22:02:18.871Z,31.15
2022-11-01T22:04:49.801Z,33.28
2022-11-01T22:07:21.457Z,30.40
2022-11-01T22:09:51.964Z,31.58
2022-11-01T22:12:24.193Z,30.95
2022-11-01T22:14:52.921Z,27.65
2022-11-01T22:17:21.590Z,31.15
2022-11-01T22:19:50.513Z,28.95
2022-11-01T22:22:20.658Z,31.45
2022-11-01T22:24:50.937Z,33.97
2022-11-01T22:27:20.145Z,30.35
2022-11-01T22:29:53.801Z,32.95
2022-11-01T22:32:23.737Z,32.42
2022-11-01T22:34:53.742Z,29.33
2022-11-01T22:37:22.644Z,27.92
2022-11-01T22:39:53.983Z,30.90
2022-11-01T22:42:23.342Z,28.27
2022-11-01T22:44:52.722Z,30.20
2022-11-01T22:47:26.400Z,28.00
2022-11-01T22:49:57.675Z,28.88
2022-11-01T22:52:33.155Z,26.10
2022-11-01T22:55:07.497Z,29.33
2022-11-01T22:57:44.664Z,28.77
2022-11-01T23:00:32.496Z,27.67
2022-11-01T23:03:12.404Z,27.00
2022-11-01T23:05:43.482Z,26.75
2022-11-01T23:08:22.289Z,24.77
2022-11-01T23:10:53.820Z,27.90
2022-11-01T23:16:26.163Z,25.90
2022-11-01T23:18:58.612Z,27.30
2022-11-01T23:21:29.085Z,22.38
2022-11-01T23:23:57.855Z,25.83
2022-11-01T23:26:31.016Z,23.65
2022-11-01T23:29:02.436Z,26.33
2022-11-01T23:31:31.571Z,28.70
2022-11-01T23:34:02.598Z,25.25
2022-11-01T23:36:36.034Z,23.98
2022-11-01T23:39:09.240Z,22.75
2022-11-01T23:41:41.355Z,24.45
2022-11-01T23:46:44.405Z,23.33
2022-11-01T23:49:18.275Z,23.05
2022-11-01T23:51:49.982Z,23.25
2022-11-01T23:54:25.445Z,21.95
2022-11-01T23:56:56.978Z,22.65
2022-11-01T23:59:25.719Z,23.23
